Main page
METAR-TAF:

METAR-TAF

Airports :

Ouagadougou, Burkina Faso

Ouagadougou Airport

latitude: 12-21N, longitude: 001-31W, elevation: 316 m

Current weather observation

The report was made 46 minutes ago, at 21:00 UTC
Calm wind
Temperature 29°C
Humidity 35%
Pressure 1012 hPa
Visibility: 8000 m

METAR: DFFD 242100Z 00000KT 8000 NSC 29/12 Q1012 NOSIG

Time: 21:46 (21:46 UTC)

Forecast

The report was made 4 hours and 46 minutes ago, at 17:00 UTC
Forecast valid from 24 at 18 UTC to 25 at 24 UTC
Wind 8 kt from the East
Visibility: 8000 m
Temporary
from 25 at 06 UTC to 25 at 10 UTC
Visibility: 4000 m
haze
Temporary
from 25 at 17 UTC to 25 at 20 UTC
Visibility: 4000 m
haze

TAF: DFFD 241700Z 2418/2524 08008KT 8000 NSC TEMPO 2506/2510 4000 HZ TEMPO 2517/2520 4000 HZ

Weather observations and forecasts of more than 4000 airports (METAR and TAF reports).

The available stations are represented by yellow and red dots on the map.

Hover mouse over dot to see the name of the station.

Then click to see weather observations and forecasts.

To change the map : click on the green buttons with a black cross to zoom in, on the green button with a dash to zoom out, or on the green arrows for adjacent maps.


METAR-TAF: